createdAt,value
2023-05-14T00:04:36.728Z,74.80
2023-05-14T00:09:40.376Z,74.85
2023-05-14T00:14:43.227Z,75.30
2023-05-14T00:19:46.051Z,75.29
2023-05-14T00:24:48.615Z,75.47
2023-05-14T00:29:51.260Z,75.61
2023-05-14T00:34:53.863Z,76.01
2023-05-14T00:39:58.159Z,76.15
2023-05-14T00:45:00.784Z,76.41
2023-05-14T00:50:04.019Z,76.66
2023-05-14T00:55:07.681Z,76.63
2023-05-14T01:00:11.072Z,77.18
2023-05-14T01:05:14.341Z,77.36
2023-05-14T01:10:29.706Z,77.78
2023-05-14T01:15:35.434Z,77.71
2023-05-14T01:20:38.162Z,77.99
2023-05-14T01:25:41.048Z,77.71
2023-05-14T01:30:57.036Z,77.85
2023-05-14T01:36:00.004Z,77.86
2023-05-14T01:41:03.198Z,77.96
2023-05-14T01:46:05.821Z,77.84
2023-05-14T01:51:08.644Z,77.84
2023-05-14T01:56:11.253Z,78.13
2023-05-14T02:01:13.911Z,78.29
2023-05-14T02:06:16.532Z,78.62
2023-05-14T02:11:19.072Z,78.76
2023-05-14T02:16:21.700Z,79.10
2023-05-14T02:21:24.433Z,79.17
2023-05-14T02:26:27.191Z,79.25
2023-05-14T02:31:30.313Z,80.03
2023-05-14T02:36:33.113Z,80.32
2023-05-14T02:41:35.860Z,80.11
2023-05-14T02:46:38.392Z,80.14
2023-05-14T02:51:40.970Z,80.01
2023-05-14T02:56:43.772Z,80.29
2023-05-14T03:01:46.438Z,80.38
2023-05-14T03:06:49.405Z,80.02
2023-05-14T03:11:52.007Z,79.83
2023-05-14T03:16:54.644Z,79.55
2023-05-14T03:21:57.192Z,79.47
2023-05-14T03:26:59.700Z,79.92
2023-05-14T03:32:02.248Z,79.97
2023-05-14T03:37:05.479Z,79.41
2023-05-14T03:42:08.133Z,79.22
2023-05-14T03:47:11.246Z,79.04
2023-05-14T03:52:13.823Z,78.16
2023-05-14T03:57:16.463Z,77.48
2023-05-14T04:02:19.191Z,77.07
2023-05-14T04:07:21.981Z,76.83
2023-05-14T04:12:24.595Z,76.42
2023-05-14T04:17:27.250Z,76.17
2023-05-14T04:22:29.763Z,76.05
2023-05-14T04:27:33.677Z,75.98
2023-05-14T04:32:36.613Z,75.83
2023-05-14T04:37:39.237Z,75.50
2023-05-14T04:42:42.420Z,75.12
2023-05-14T04:47:46.718Z,74.77
2023-05-14T04:52:49.355Z,74.03
2023-05-14T04:57:51.967Z,73.07
2023-05-14T05:02:54.722Z,72.60
2023-05-14T05:07:57.387Z,72.15
2023-05-14T05:13:00.421Z,71.33
2023-05-14T05:18:06.368Z,70.35
2023-05-14T05:23:09.013Z,69.25
2023-05-14T05:28:11.958Z,68.29
2023-05-14T05:33:14.692Z,67.50
2023-05-14T05:38:18.319Z,66.93
2023-05-14T05:43:21.006Z,66.19
2023-05-14T05:48:23.616Z,65.20
2023-05-14T05:53:26.196Z,63.77
2023-05-14T05:58:29.071Z,63.54
2023-05-14T06:03:33.946Z,62.43
2023-05-14T06:08:36.529Z,61.72
2023-05-14T06:13:39.168Z,61.22
2023-05-14T06:18:41.718Z,60.49
2023-05-14T06:23:44.581Z,59.41
2023-05-14T06:28:48.397Z,58.91
2023-05-14T06:33:52.278Z,57.65
2023-05-14T06:38:54.847Z,56.61
2023-05-14T06:43:57.764Z,55.33
2023-05-14T06:49:00.482Z,55.30
2023-05-14T06:54:04.474Z,54.39
2023-05-14T06:59:08.139Z,53.54
2023-05-14T07:04:11.045Z,52.68
2023-05-14T07:09:13.719Z,51.44
2023-05-14T07:14:16.430Z,50.63
2023-05-14T07:19:19.141Z,49.56
2023-05-14T07:24:21.973Z,48.09
2023-05-14T07:29:25.433Z,46.31
2023-05-14T07:34:28.008Z,44.69
2023-05-14T07:39:30.935Z,43.27
2023-05-14T07:44:33.499Z,42.01
2023-05-14T07:49:36.679Z,41.15
2023-05-14T07:54:41.635Z,38.59
2023-05-14T07:59:44.396Z,37.96
2023-05-14T08:04:46.927Z,37.92
2023-05-14T08:09:49.512Z,37.16
2023-05-14T08:14:53.447Z,35.99
2023-05-14T08:19:55.996Z,34.84
2023-05-14T08:24:59.597Z,34.37
2023-05-14T08:30:02.188Z,34.59
2023-05-14T08:35:05.321Z,34.14
2023-05-14T08:40:09.359Z,33.14
2023-05-14T08:45:19.832Z,32.61
2023-05-14T08:50:23.736Z,31.61
2023-05-14T08:55:26.786Z,31.79
2023-05-14T09:00:29.517Z,30.77
2023-05-14T09:05:33.351Z,30.28
2023-05-14T09:10:36.241Z,30.20
2023-05-14T09:15:41.314Z,29.96
2023-05-14T09:20:44.180Z,29.34
2023-05-14T09:25:48.412Z,29.15
2023-05-14T09:30:52.138Z,28.50
2023-05-14T09:36:01.805Z,28.38
2023-05-14T09:41:04.528Z,28.41
2023-05-14T09:46:07.086Z,28.19
2023-05-14T09:51:11.508Z,26.56
2023-05-14T09:56:14.740Z,24.79
2023-05-14T10:01:20.076Z,25.32
2023-05-14T10:06:28.490Z,25.30
2023-05-14T10:11:34.213Z,24.99
2023-05-14T10:16:51.494Z,24.89
2023-05-14T10:22:04.594Z,24.81
2023-05-14T10:27:07.647Z,24.39
2023-05-14T10:32:13.178Z,23.98
2023-05-14T10:37:18.151Z,23.79
2023-05-14T10:42:32.444Z,23.60
2023-05-14T10:47:40.006Z,22.71
2023-05-14T10:52:44.083Z,22.91
2023-05-14T10:57:46.974Z,22.94
2023-05-14T11:02:49.852Z,22.94
2023-05-14T11:07:56.760Z,22.31
2023-05-14T11:12:59.589Z,22.64
2023-05-14T11:18:02.246Z,23.23
2023-05-14T11:23:05.084Z,22.53
2023-05-14T11:28:08.323Z,21.98
2023-05-14T11:33:11.490Z,22.27
2023-05-14T11:38:18.085Z,22.16
2023-05-14T11:43:23.734Z,21.47
2023-05-14T11:48:26.450Z,22.39
2023-05-14T11:53:31.112Z,24.92
2023-05-14T11:58:33.999Z,27.48
2023-05-14T12:03:36.918Z,29.44
2023-05-14T12:08:40.020Z,29.44
2023-05-14T12:13:42.569Z,29.02
2023-05-14T12:18:45.273Z,28.61
2023-05-14T12:23:48.160Z,27.40
2023-05-14T12:28:50.935Z,27.04
2023-05-14T12:33:53.476Z,27.12
2023-05-14T12:39:01.710Z,26.72
2023-05-14T12:44:04.837Z,26.72
2023-05-14T12:49:07.774Z,26.53
2023-05-14T12:54:11.238Z,26.68
2023-05-14T12:59:13.810Z,26.68
2023-05-14T13:04:16.481Z,26.01
2023-05-14T13:09:19.223Z,24.69
2023-05-14T13:14:21.897Z,25.12
2023-05-14T13:19:24.685Z,25.04
2023-05-14T13:24:27.857Z,24.51
2023-05-14T13:29:31.545Z,23.10
2023-05-14T13:34:34.144Z,22.07
2023-05-14T13:39:36.738Z,22.05
2023-05-14T13:44:39.400Z,22.13
2023-05-14T13:49:42.902Z,21.30
2023-05-14T13:54:45.929Z,19.95
2023-05-14T13:59:49.093Z,19.00
2023-05-14T14:04:51.763Z,17.98
2023-05-14T14:09:54.358Z,16.80
2023-05-14T14:14:57.114Z,16.24
2023-05-14T14:19:59.649Z,16.68
2023-05-14T14:25:02.883Z,16.41
2023-05-14T14:30:15.489Z,15.25
2023-05-14T14:35:19.792Z,14.31
2023-05-14T14:40:23.910Z,14.08
2023-05-14T14:45:26.573Z,14.03
2023-05-14T14:50:29.216Z,14.42
2023-05-14T14:55:32.024Z,13.71
2023-05-14T15:00:34.902Z,12.94
2023-05-14T15:05:37.749Z,13.23
2023-05-14T15:10:41.707Z,12.86
2023-05-14T15:15:44.517Z,12.86
2023-05-14T15:20:47.191Z,12.55
2023-05-14T15:25:50.071Z,12.69
2023-05-14T15:30:52.909Z,12.96
2023-05-14T15:35:57.621Z,13.04
2023-05-14T15:41:00.575Z,12.72
2023-05-14T15:46:03.379Z,12.32
2023-05-14T15:51:06.271Z,11.69
2023-05-14T15:56:08.996Z,11.74
2023-05-14T16:01:11.603Z,11.97
2023-05-14T16:06:14.237Z,12.33
2023-05-14T16:11:17.218Z,12.47
2023-05-14T16:16:22.819Z,12.85
2023-05-14T16:21:25.795Z,12.83
2023-05-14T16:26:29.230Z,13.59
2023-05-14T16:31:32.074Z,14.47
2023-05-14T16:36:34.846Z,15.54
2023-05-14T16:41:37.511Z,16.49
2023-05-14T16:46:40.338Z,17.43
2023-05-14T16:51:43.885Z,18.63
2023-05-14T16:56:49.161Z,19.68
2023-05-14T17:01:51.860Z,20.46
2023-05-14T17:06:54.541Z,21.25
2023-05-14T17:11:57.214Z,21.89
2023-05-14T17:16:59.910Z,22.36
2023-05-14T17:22:05.763Z,22.90
2023-05-14T17:27:08.653Z,23.33
2023-05-14T17:32:11.438Z,23.93
2023-05-14T17:37:14.264Z,24.44
2023-05-14T17:42:17.210Z,24.88
2023-05-14T17:47:20.697Z,25.47
2023-05-14T17:52:23.414Z,26.08
2023-05-14T17:57:26.548Z,26.46
2023-05-14T18:02:29.211Z,26.84
2023-05-14T18:07:32.334Z,27.16
2023-05-14T18:12:34.941Z,27.56
2023-05-14T18:17:37.775Z,27.81
2023-05-14T18:22:40.719Z,28.15
2023-05-14T18:27:45.053Z,28.70
2023-05-14T18:32:47.984Z,29.45
2023-05-14T18:37:50.864Z,29.91
2023-05-14T18:42:54.026Z,30.44
2023-05-14T18:47:57.006Z,31.25
2023-05-14T18:52:59.703Z,32.42
2023-05-14T18:58:03.062Z,33.23
2023-05-14T19:03:06.203Z,34.39
2023-05-14T19:08:08.902Z,35.09
2023-05-14T19:13:11.831Z,36.06
2023-05-14T19:18:15.802Z,37.06
2023-05-14T19:23:18.780Z,38.20
2023-05-14T19:28:21.415Z,38.43
2023-05-14T19:33:26.029Z,39.20
2023-05-14T19:38:29.586Z,39.72
2023-05-14T19:43:32.235Z,39.84
2023-05-14T19:48:36.155Z,40.57
2023-05-14T19:53:39.127Z,41.69
2023-05-14T19:58:41.777Z,42.75
2023-05-14T20:03:44.507Z,43.90
2023-05-14T20:08:47.121Z,44.45
2023-05-14T20:13:49.688Z,44.89
2023-05-14T20:18:53.500Z,45.17
2023-05-14T20:23:56.097Z,45.51
2023-05-14T20:28:58.722Z,45.16
2023-05-14T20:34:02.099Z,45.23
2023-05-14T20:39:06.175Z,45.30
2023-05-14T20:44:08.920Z,45.75
2023-05-14T20:49:11.507Z,46.20
2023-05-14T20:54:14.026Z,47.45
2023-05-14T20:59:16.708Z,48.13
2023-05-14T21:04:19.561Z,48.82
2023-05-14T21:09:23.673Z,49.60
2023-05-14T21:14:26.489Z,51.64
2023-05-14T21:19:29.038Z,51.86
2023-05-14T21:24:31.635Z,51.70
2023-05-14T21:29:34.749Z,51.70
2023-05-14T21:34:37.440Z,52.80
2023-05-14T21:39:40.093Z,53.25
2023-05-14T21:44:43.904Z,53.05
2023-05-14T21:49:46.537Z,52.71
2023-05-14T21:54:49.079Z,52.98
2023-05-14T21:59:51.613Z,54.40
2023-05-14T22:04:54.271Z,54.11
2023-05-14T22:09:56.894Z,54.55
2023-05-14T22:14:59.508Z,54.06
2023-05-14T22:20:05.586Z,53.68
2023-05-14T22:25:08.847Z,54.58
2023-05-14T22:30:11.875Z,54.79
2023-05-14T22:35:14.529Z,54.57
2023-05-14T22:40:17.137Z,54.45
2023-05-14T22:45:19.990Z,54.71
2023-05-14T22:50:22.585Z,54.77
2023-05-14T22:55:25.490Z,55.21
2023-05-14T23:00:28.283Z,56.45
2023-05-14T23:05:31.058Z,57.91
2023-05-14T23:10:35.403Z,58.81
2023-05-14T23:15:38.798Z,58.43
2023-05-14T23:20:41.515Z,58.05
2023-05-14T23:25:44.120Z,58.25
2023-05-14T23:30:46.658Z,58.05
2023-05-14T23:35:49.369Z,58.12
2023-05-14T23:40:51.900Z,58.76
2023-05-14T23:45:54.590Z,58.63
2023-05-14T23:50:57.168Z,58.81
2023-05-14T23:55:59.955Z,59.17
